Time;durP1;ratioP1;P1;durP2;ratioP2;P2;SDS_P1;SDS_P2;PMS_P1;PMS_P2;Temp;Humidity;BMP_temperature;BMP_pressure;BME280_temperature;BME280_humidity;BME280_pressure;Samples;Min_cycle;Max_cycle;Signal;HPM_P1;HPM_P2
2021/06/08 00:00:29;;;;;;;37.63;28.38;;;;;;;-150.07;50.95;63816.72;4945182;29;20133;-83
2021/06/08 00:02:56;;;;;;;36.88;28.10;;;;;;;-150.07;50.36;63810.44;4956714;29;20031;-84
2021/06/08 00:05:23;;;;;;;41.03;31.70;;;;;;;-150.07;50.92;63594.81;4957353;29;20027;-84
2021/06/08 00:07:50;;;;;;;42.30;31.58;;;;;;;-150.07;51.42;63760.19;4964731;28;20027;-84
2021/06/08 00:10:19;;;;;;;44.53;32.15;;;;;;;-150.07;52.35;63804.16;4957342;28;20082;-84
2021/06/08 00:12:47;;;;;;;44.65;31.55;;;;;;;-150.07;53.84;63458.72;4956020;29;20035;-79
2021/06/08 00:15:14;;;;;;;38.58;29.27;;;;;;;-150.07;53.67;64336.03;4957422;28;20043;-81
2021/06/08 00:17:41;;;;;;;36.53;28.10;;;;;;;-150.07;53.77;63848.13;4957582;28;20831;-83
2021/06/08 00:20:09;;;;;;;37.55;28.30;;;;;;;-150.07;54.42;63791.59;4956294;29;20031;-84
2021/06/08 00:22:36;;;;;;;38.63;26.98;;;;;;;-150.07;54.65;64051.25;4956399;29;20035;-83
2021/06/08 00:25:03;;;;;;;41.53;27.67;;;;;;;-150.07;55.08;63301.69;4956381;29;20031;-83
2021/06/08 00:27:30;;;;;;;45.47;29.15;;;;;;;-150.07;56.96;63153.06;4957146;29;20067;-85
2021/06/08 00:29:57;;;;;;;43.47;28.52;;;;;;;-150.07;57.48;63224.25;4955936;28;20027;-85
2021/06/08 00:32:24;;;;;;;41.25;27.15;;;;;;;-150.07;56.66;63475.47;4957621;28;20500;-82
2021/06/08 00:34:51;;;;;;;43.13;29.65;;;;;;;-150.07;57.14;63701.56;4957753;29;20035;-84
2021/06/08 00:37:18;;;;;;;46.47;27.80;;;;;;;-150.07;56.29;63584.34;4958616;28;20123;-84
2021/06/08 00:39:45;;;;;;;48.63;30.67;;;;;;;-150.07;56.00;64455.38;4958897;28;20036;-84
2021/06/08 00:42:12;;;;;;;39.22;26.73;;;;;;;-150.07;55.45;63473.38;4957432;28;20055;-84
2021/06/08 00:44:40;;;;;;;40.20;27.55;;;;;;;-150.07;55.14;63689.00;4955883;29;20477;-83
2021/06/08 00:47:07;;;;;;;38.50;27.70;;;;;;;-150.07;55.28;63571.78;4955986;29;20031;-84
2021/06/08 00:49:33;;;;;;;43.45;27.05;;;;;;;-150.07;55.48;63362.41;4956193;29;20031;-84
2021/06/08 00:52:00;;;;;;;38.88;27.60;;;;;;;-150.07;54.82;64568.47;4955717;28;20019;-84
2021/06/08 00:54:27;;;;;;;37.70;26.40;;;;;;;-150.07;54.93;63756.00;4947349;29;20038;-84
2021/06/08 00:56:55;;;;;;;41.22;28.52;;;;;;;-150.07;54.99;63458.72;4942566;29;20036;-84
2021/06/08 00:59:22;;;;;;;38.08;27.95;;;;;;;-150.07;54.61;63709.94;4936444;29;20035;-84
2021/06/08 01:01:49;;;;;;;44.92;27.35;;;;;;;-150.07;54.30;63808.34;4936262;29;20401;-84
2021/06/08 01:04:16;;;;;;;40.33;26.08;;;;;;;-150.07;55.01;63599.00;4937637;29;20389;-84
2021/06/08 01:06:47;;;;;;;44.38;28.70;;;;;;;-150.07;55.15;64375.81;4937440;29;20094;-84
2021/06/08 01:09:14;;;;;;;41.75;29.33;;;;;;;-150.07;55.78;63525.72;4936476;29;20039;-86
2021/06/08 01:11:42;;;;;;;37.65;27.00;;;;;;;-150.07;55.36;63699.47;4937938;29;20031;-85
2021/06/08 01:14:09;;;;;;;32.85;26.52;;;;;;;-150.07;55.13;63676.44;4936832;29;20036;-84
2021/06/08 01:16:36;;;;;;;42.90;27.60;;;;;;;-150.07;56.66;63517.34;4938253;29;20495;-83
2021/06/08 01:19:03;;;;;;;39.95;26.90;;;;;;;-150.07;56.73;64497.25;4940746;29;20509;-84
2021/06/08 01:21:31;;;;;;;44.47;28.95;;;;;;;-150.07;56.71;63611.56;4951778;29;20031;-84
2021/06/08 01:23:59;;;;;;;48.65;29.75;;;;;;;-150.07;57.30;63601.09;4965002;29;20039;-85
2021/06/08 01:26:27;;;;;;;44.05;29.60;;;;;;;-150.07;57.51;63923.50;4962901;28;20019;-83
2021/06/08 01:29:01;;;;;;;47.53;29.17;;;;;;;-150.07;56.71;63575.97;4959757;29;20059;-81
2021/06/08 01:31:31;;;;;;;49.30;29.13;;;;;;;-150.07;56.28;63691.09;4958623;29;20027;-84
2021/06/08 01:33:58;;;;;;;43.05;28.40;;;;;;;-150.07;55.66;63414.75;4961444;29;20106;-84
2021/06/08 01:36:27;;;;;;;43.95;29.65;;;;;;;-150.07;55.86;63446.16;4964119;29;20066;-83
2021/06/08 01:38:55;;;;;;;48.72;28.45;;;;;;;-150.07;56.16;63808.34;4956171;29;20118;-85
2021/06/08 01:41:25;;;;;;;45.47;30.08;;;;;;;-150.07;56.20;64543.34;4953401;29;20040;-83
2021/06/08 01:43:52;;;;;;;;;;;;;;;-150.07;57.16;63596.91;4977181;28;20192;-85
2021/06/08 01:46:21;;;;;;;48.30;33.03;;;;;;;-150.07;57.67;63429.41;4973133;28;19918;-86
2021/06/08 01:48:49;;;;;;;50.92;32.28;;;;;;;-150.07;56.93;64294.13;4969420;28;20031;-85
2021/06/08 01:51:34;;;;;;;50.03;34.00;;;;;;;-150.07;56.43;63657.59;4955229;29;20051;-85
2021/06/08 01:54:37;;;;;;;49.97;31.88;;;;;;;-150.07;56.77;63638.78;4955425;29;20016;-84
2021/06/08 01:57:38;;;;;;;44.88;31.85;;;;;;;-150.07;56.33;63599.00;4955842;29;20037;-85
2021/06/08 02:00:16;;;;;;;60.70;38.85;;;;;;;-150.07;56.26;63517.34;4967686;28;20058;-86
2021/06/08 02:02:56;;;;;;;60.53;40.40;;;;;;;-150.07;56.30;63508.97;4953747;29;20050;-88
2021/06/08 02:05:54;;;;;;;55.10;37.22;;;;;;;-150.07;55.42;63640.84;4955377;28;20145;-86
2021/06/08 02:08:42;;;;;;;51.45;36.65;;;;;;;-150.07;54.39;63686.91;4954072;29;20031;-85
2021/06/08 02:11:13;;;;;;;57.90;31.75;;;;;;;-150.07;55.37;63603.19;4961012;28;20031;-87
2021/06/08 02:14:04;;;;;;;48.47;32.05;;;;;;;-150.07;55.01;63663.88;4953878;29;20031;-86
2021/06/08 02:16:39;;;;;;;36.05;29.90;;;;;;;-150.07;54.39;63774.84;4944208;28;20036;-83
2021/06/08 02:19:06;;;;;;;38.97;28.40;;;;;;;-150.07;53.24;64675.28;4936246;29;20410;-82
2021/06/08 02:21:40;;;;;;;37.88;28.30;;;;;;;-150.07;52.92;63940.25;4936308;29;20120;-84
2021/06/08 02:24:09;;;;;;;46.65;28.83;;;;;;;-150.07;53.06;63580.16;4949814;29;20401;-84
2021/06/08 02:26:39;;;;;;;39.70;29.63;;;;;;;-150.07;52.73;63823.00;4947884;29;20028;-82
2021/06/08 02:29:07;;;;;;;35.88;27.83;;;;;;;-150.07;53.31;64218.75;4955118;29;20030;-83
2021/06/08 02:31:35;;;;;;;42.85;28.60;;;;;;;-150.07;53.27;63760.19;4943168;29;20046;-84
2021/06/08 02:34:04;;;;;;;33.75;27.52;;;;;;;-150.07;53.37;64250.16;4934980;29;20027;-83
2021/06/08 02:36:31;;;;;;;34.95;25.55;;;;;;;-150.07;54.42;63701.56;4937476;29;20032;-84
2021/06/08 02:38:59;;;;;;;34.85;24.50;;;;;;;-150.07;54.69;64497.25;4938793;29;20043;-83
2021/06/08 02:41:27;;;;;;;39.65;28.27;;;;;;;-150.07;54.58;64457.47;4954993;29;20031;-83
2021/06/08 02:43:55;;;;;;;32.50;25.98;;;;;;;-150.07;54.87;63622.03;4941585;29;20035;-85
2021/06/08 02:46:25;;;;;;;39.80;26.88;;;;;;;-150.07;54.45;63709.94;4957558;28;20447;-83
2021/06/08 02:48:54;;;;;;;28.75;22.35;;;;;;;-150.07;54.39;63751.81;4970604;28;20054;-86
2021/06/08 02:51:23;;;;;;;32.33;23.80;;;;;;;-150.07;54.07;63923.50;4969270;28;20496;-84
2021/06/08 02:53:53;;;;;;;27.00;19.92;;;;;;;-150.07;53.35;64158.03;4952856;29;20012;-85
2021/06/08 02:56:20;;;;;;;24.27;19.02;;;;;;;-150.07;52.73;64080.56;4958192;29;20024;-81
2021/06/08 02:58:48;;;;;;;30.05;25.10;;;;;;;-150.07;51.36;64141.28;4955788;29;20031;-82
2021/06/08 03:01:18;;;;;;;36.55;27.58;;;;;;;-150.07;50.86;64216.66;4956998;29;20373;-82
2021/06/08 03:03:51;;;;;;;31.27;24.77;;;;;;;-150.07;53.15;64258.53;4962334;28;20034;-83
2021/06/08 03:06:23;;;;;;;35.20;25.83;;;;;;;-150.07;53.48;63749.72;4954294;29;20053;-84
2021/06/08 03:09:10;;;;;;;28.45;24.33;;;;;;;-150.07;53.52;63860.69;4954269;29;20054;-85
2021/06/08 03:11:58;;;;;;;23.88;19.42;;;;;;;-150.07;53.94;63737.16;4955834;28;20027;-85
2021/06/08 03:14:26;;;;;;;27.77;19.48;;;;;;;-150.07;55.46;63605.28;4953650;29;20039;-84
2021/06/08 03:16:58;;;;;;;29.58;22.27;;;;;;;-150.07;55.60;64080.56;4954701;29;20081;-86
2021/06/08 03:19:31;;;;;;;21.95;19.50;;;;;;;-150.07;55.59;63718.31;4953855;29;20142;-85
2021/06/08 03:22:03;;;;;;;25.05;20.98;;;;;;;-150.07;55.80;63665.97;4954812;29;20094;-85
2021/06/08 03:24:36;;;;;;;23.83;20.25;;;;;;;-150.07;57.51;63477.56;4954253;29;20038;-86
2021/06/08 03:27:06;;;;;;;26.33;21.08;;;;;;;-150.07;57.01;63552.94;4939586;29;20496;-87
2021/06/08 03:29:35;;;;;;;24.25;20.00;;;;;;;-150.07;57.99;63194.94;4953113;29;20520;-86
2021/06/08 03:32:02;;;;;;;22.50;19.63;;;;;;;-150.07;56.43;64055.44;4940770;29;20047;-85
2021/06/08 03:34:31;;;;;;;24.50;17.88;;;;;;;-150.07;55.43;63592.72;4937623;29;20099;-85
2021/06/08 03:37:00;;;;;;;23.08;18.13;;;;;;;-150.07;55.26;64459.56;4937127;29;20035;-85
2021/06/08 03:39:28;;;;;;;19.23;15.98;;;;;;;-150.07;56.16;63391.72;4935679;29;20047;-85
2021/06/08 03:41:56;;;;;;;18.95;17.05;;;;;;;-150.07;55.73;63546.66;4936939;29;20363;-84
2021/06/08 03:44:24;;;;;;;21.45;14.48;;;;;;;-150.07;55.91;63372.88;4951710;28;20031;-85
2021/06/08 03:46:52;;;;;;;15.57;13.95;;;;;;;-150.07;55.69;63806.25;4951211;29;20059;-87
2021/06/08 03:49:21;;;;;;;16.65;14.65;;;;;;;-150.07;55.45;63802.06;4958781;29;20061;-83
2021/06/08 03:51:55;;;;;;;23.15;18.52;;;;;;;-150.07;56.24;63678.53;4959283;28;20062;-85
2021/06/08 03:54:23;;;;;;;31.55;19.00;;;;;;;-150.07;55.96;63691.09;4958950;29;20082;-84
2021/06/08 03:56:55;;;;;;;26.48;21.48;;;;;;;-150.07;56.01;63756.00;4958154;29;20035;-85
2021/06/08 03:59:24;;;;;;;32.33;23.02;;;;;;;-150.07;55.46;63774.84;4958347;29;20032;-85
2021/06/08 04:01:52;;;;;;;27.65;21.70;;;;;;;-150.07;55.44;63651.31;4958252;29;20043;-85
2021/06/08 04:04:20;;;;;;;30.58;23.77;;;;;;;-150.07;54.78;63998.91;4957523;29;20037;-85
2021/06/08 04:06:48;;;;;;;29.60;23.25;;;;;;;-150.07;54.34;63957.03;4957031;29;20027;-83
2021/06/08 04:09:16;;;;;;;26.15;21.13;;;;;;;-150.07;54.64;63628.28;4959251;28;20028;-85
2021/06/08 04:11:47;;;;;;;30.67;22.63;;;;;;;-150.07;53.54;64155.94;4958751;29;20106;-84
2021/06/08 04:14:15;;;;;;;29.40;22.55;;;;;;;-150.07;52.96;64145.47;4945641;29;20028;-83
2021/06/08 04:16:42;;;;;;;27.77;21.85;;;;;;;-150.07;53.41;64742.28;4954556;28;20088;-83
2021/06/08 04:19:10;;;;;;;34.38;21.95;;;;;;;-150.07;53.12;64235.50;4955103;29;20043;-84
2021/06/08 04:21:37;;;;;;;26.27;20.50;;;;;;;-150.07;53.43;64040.78;4940069;29;20516;-83
2021/06/08 04:24:06;;;;;;;24.92;18.67;;;;;;;-150.07;53.67;64160.13;4940081;29;20035;-86
2021/06/08 04:26:34;;;;;;;25.17;20.23;;;;;;;-150.07;53.01;64195.72;4954796;29;20103;-81
2021/06/08 04:29:01;;;;;;;27.75;22.80;;;;;;;-150.07;52.83;64317.19;4943591;29;20130;-83
2021/06/08 04:31:29;;;;;;;26.17;21.10;;;;;;;-150.07;53.61;64522.41;4962454;29;20038;-84
2021/06/08 04:33:55;;;;;;;27.40;20.95;;;;;;;-150.07;52.74;64652.22;4959194;29;20038;-84
2021/06/08 04:36:24;;;;;;;28.65;22.20;;;;;;;-150.07;51.44;64354.88;4957663;28;20023;-82
2021/06/08 04:38:52;;;;;;;24.50;20.35;;;;;;;-150.07;52.04;64281.56;4957861;29;20036;-82
2021/06/08 04:41:20;;;;;;;26.73;18.58;;;;;;;-150.07;51.52;64434.44;4944563;29;20123;-83
2021/06/08 04:43:48;;;;;;;27.05;21.77;;;;;;;-150.07;53.05;64518.22;4941386;29;20023;-83
2021/06/08 04:46:15;;;;;;;22.52;19.33;;;;;;;-150.07;52.81;64338.13;4951192;29;20023;-83
2021/06/08 04:48:43;;;;;;;27.00;20.73;;;;;;;-150.07;52.38;64283.66;4938317;29;20096;-83
2021/06/08 04:51:11;;;;;;;21.90;17.80;;;;;;;-150.07;51.71;64354.88;4954927;29;20031;-82
2021/06/08 04:53:39;;;;;;;20.73;16.27;;;;;;;-150.07;52.09;64790.44;4968551;28;20012;-81
2021/06/08 04:56:07;;;;;;;18.65;15.35;;;;;;;-150.07;52.05;64312.97;4974567;28;20043;-82
2021/06/08 04:58:36;;;;;;;21.73;19.33;;;;;;;-150.07;52.02;64333.94;4974374;29;20066;-84
2021/06/08 05:01:20;;;;;;;23.73;18.80;;;;;;;-150.07;50.65;64591.50;4972385;29;20091;-82
2021/06/08 05:03:52;;;;;;;18.92;14.70;;;;;;;-150.07;50.97;64348.59;4971375;29;20086;-82
2021/06/08 05:06:36;;;;;;;19.10;12.13;;;;;;;-150.07;50.85;64193.63;4962726;28;20016;-83
2021/06/08 05:09:08;;;;;;;16.13;12.63;;;;;;;-150.07;50.34;64608.25;4963880;29;20091;-82
2021/06/08 05:11:39;;;;;;;15.10;13.48;;;;;;;-150.07;50.18;64583.13;4970513;29;20066;-82
2021/06/08 05:14:07;;;;;;;19.00;11.88;;;;;;;-150.07;51.10;65037.59;4969428;28;20023;-84
2021/06/08 05:16:39;;;;;;;14.95;13.00;;;;;;;-150.07;51.79;64003.09;4958145;29;20034;-84
2021/06/08 05:19:09;;;;;;;17.92;13.80;;;;;;;-150.07;53.31;63906.75;4970417;28;20079;-84
2021/06/08 05:21:38;;;;;;;;;;;;;;;-150.07;53.67;63873.25;4974200;29;20435;-84
2021/06/08 05:24:06;;;;;;;20.40;13.45;;;;;;;-150.07;52.28;63913.03;4974812;28;19906;-83
2021/06/08 05:26:33;;;;;;;19.15;13.38;;;;;;;-150.07;52.58;64715.06;4959473;29;20032;-84
2021/06/08 05:29:00;;;;;;;14.00;10.77;;;;;;;-150.07;52.72;64042.88;4954844;29;20039;-84
2021/06/08 05:31:28;;;;;;;15.02;12.13;;;;;;;-150.07;51.63;64937.06;4955825;28;20102;-83
2021/06/08 05:33:59;;;;;;;13.05;11.05;;;;;;;-150.07;51.29;64304.59;4950958;28;20019;-80
2021/06/08 05:36:37;;;;;;;14.35;10.00;;;;;;;-150.07;50.29;64283.66;4967976;29;20023;-82
2021/06/08 05:39:06;;;;;;;8.23;7.43;;;;;;;-150.07;51.80;64323.47;4969001;29;20066;-84
2021/06/08 05:41:33;;;;;;;8.13;7.32;;;;;;;-150.07;51.83;63839.75;4966964;28;20114;-84
2021/06/08 05:44:00;;;;;;;5.53;5.00;;;;;;;-150.07;50.96;64143.38;4961968;28;20031;-82
2021/06/08 05:46:32;;;;;;;6.43;5.85;;;;;;;-150.07;50.94;64137.09;4951703;29;20055;-82
2021/06/08 05:49:03;;;;;;;12.57;6.18;;;;;;;-150.07;50.94;64055.44;4947985;29;20535;-84
2021/06/08 05:51:38;;;;;;;9.88;7.68;;;;;;;-150.07;51.20;63986.34;4936359;29;20130;-84
2021/06/08 05:54:07;;;;;;;10.27;8.00;;;;;;;-150.07;51.14;64742.28;4965313;28;20035;-83
2021/06/08 05:56:36;;;;;;;9.32;7.78;;;;;;;-150.07;50.59;64727.63;4957190;28;20074;-83
2021/06/08 05:59:03;;;;;;;11.07;9.55;;;;;;;-150.07;50.46;64254.34;4955502;28;20059;-83
2021/06/08 06:01:31;;;;;;;11.95;8.65;;;;;;;-150.07;50.13;64116.16;4955696;28;20027;-84
2021/06/08 06:03:58;;;;;;;17.52;9.35;;;;;;;-150.07;50.03;64457.47;4955811;28;20015;-82
2021/06/08 06:06:26;;;;;;;9.55;8.63;;;;;;;-150.07;50.13;64455.38;4939938;29;20043;-83
2021/06/08 06:08:54;;;;;;;12.43;10.90;;;;;;;-150.07;49.67;64472.13;4937351;29;20036;-83
2021/06/08 06:11:21;;;;;;;13.93;11.55;;;;;;;-150.07;49.28;64604.06;4935699;29;20087;-82
2021/06/08 06:13:54;;;;;;;14.20;11.10;;;;;;;-150.07;48.84;65270.06;4935673;29;20035;-83
2021/06/08 06:16:22;;;;;;;14.68;11.90;;;;;;;-150.07;49.15;64490.97;4935675;29;20107;-82
2021/06/08 06:18:49;;;;;;;13.20;11.27;;;;;;;-150.07;49.04;64451.19;4936111;29;20836;-82
2021/06/08 06:21:17;;;;;;;14.82;12.68;;;;;;;-150.07;49.72;65230.28;4936362;29;20556;-82
2021/06/08 06:23:45;;;;;;;14.85;13.07;;;;;;;-150.07;49.99;65163.25;4936716;29;20032;-84
2021/06/08 06:26:12;;;;;;;16.95;12.35;;;;;;;-150.07;49.93;64344.41;4937878;29;20028;-82
2021/06/08 06:28:40;;;;;;;13.18;11.77;;;;;;;-150.07;50.68;64352.78;4938467;29;20032;-84
2021/06/08 06:31:08;;;;;;;15.07;11.85;;;;;;;-150.07;50.85;64210.38;4938125;29;20928;-84
2021/06/08 06:33:35;;;;;;;19.15;10.55;;;;;;;-150.07;51.98;64132.91;4940541;29;20036;-86
2021/06/08 06:36:06;;;;;;;18.42;14.90;;;;;;;-150.07;52.15;64042.88;4942423;29;20036;-88
2021/06/08 06:38:35;;;;;;;17.63;14.57;;;;;;;-150.07;52.33;63806.25;4939134;29;20015;-89
2021/06/08 06:41:09;;;;;;;20.27;13.17;;;;;;;-150.07;52.14;64034.50;4957247;29;20122;-87
2021/06/08 06:43:38;;;;;;;16.70;10.82;;;;;;;-150.07;51.88;63877.44;4962417;29;20023;-86
2021/06/08 06:46:05;;;;;;;16.13;10.27;;;;;;;-150.07;51.60;63950.72;4960595;29;20111;-87
2021/06/08 06:48:32;;;;;;;8.43;7.50;;;;;;;-150.07;51.66;63875.34;4964566;29;20043;-86
2021/06/08 06:51:01;;;;;;;9.40;6.63;;;;;;;-150.07;51.48;63986.34;4963265;29;20063;-86
2021/06/08 06:53:48;;;;;;;6.80;6.20;;;;;;;-150.07;52.09;63550.84;4965140;29;20047;-87
2021/06/08 06:56:15;;;;;;;6.07;5.47;;;;;;;-150.07;51.38;63869.06;4994285;28;20039;-87
2021/06/08 06:58:42;;;;;;;7.78;5.32;;;;;;;-150.07;51.58;63703.66;4959271;29;20035;-86
2021/06/08 07:01:10;;;;;;;6.57;5.93;;;;;;;-150.07;52.49;63680.63;4958451;29;20023;-87
2021/06/08 07:03:38;;;;;;;8.25;5.13;;;;;;;-150.07;51.51;64130.81;4947440;29;20106;-86
2021/06/08 07:06:05;;;;;;;6.22;5.63;;;;;;;-150.07;51.17;64972.66;4955370;29;20030;-86
2021/06/08 07:08:33;;;;;;;7.20;5.88;;;;;;;-150.07;51.61;63934.00;4959932;29;20511;-84
2021/06/08 07:11:00;;;;;;;7.22;6.47;;;;;;;-150.07;52.01;63921.41;4962188;29;20428;-87
2021/06/08 07:13:28;;;;;;;7.20;6.38;;;;;;;-150.07;52.20;64729.72;4949300;29;20438;-86
2021/06/08 07:15:55;;;;;;;9.32;8.15;;;;;;;-150.07;51.64;64583.13;4964374;29;20031;-86
2021/06/08 07:18:22;;;;;;;10.27;7.90;;;;;;;-150.07;51.03;63816.72;4973740;28;20047;-86
2021/06/08 07:20:49;;;;;;;12.05;9.45;;;;;;;-150.07;51.12;63843.94;4977567;29;20098;-86
2021/06/08 07:23:20;;;;;;;11.10;9.00;;;;;;;-150.07;51.46;63957.03;4978464;28;20062;-86
2021/06/08 07:25:50;;;;;;;10.45;8.75;;;;;;;-150.07;51.21;63823.00;4973387;28;20027;-86
2021/06/08 07:28:19;;;;;;;13.83;11.10;;;;;;;-150.07;51.90;63915.13;4947551;29;20024;-86
2021/06/08 07:30:48;;;;;;;15.97;12.70;;;;;;;-150.07;51.44;63848.13;4943714;29;20131;-87
2021/06/08 07:33:27;;;;;;;10.75;9.52;;;;;;;-150.07;51.87;63969.59;4946076;29;20016;-85
2021/06/08 07:35:58;;;;;;;11.05;8.45;;;;;;;-150.07;52.31;64051.25;4977469;28;20046;-88
2021/06/08 07:38:35;;;;;;;12.25;9.90;;;;;;;-150.07;52.16;63833.47;4959426;29;20050;-84
2021/06/08 07:41:07;;;;;;;10.32;9.27;;;;;;;-150.07;52.98;64143.38;4957964;29;20046;-79
2021/06/08 07:43:44;;;;;;;12.45;9.77;;;;;;;-150.07;52.02;63982.16;4958882;28;20027;-79
2021/06/08 07:46:18;;;;;;;11.50;7.90;;;;;;;-150.07;51.74;63663.88;4956245;29;20039;-80
2021/06/08 07:48:50;;;;;;;14.85;9.18;;;;;;;-150.07;51.91;63877.44;4960056;28;20062;-83
2021/06/08 07:51:17;;;;;;;10.63;7.53;;;;;;;-150.07;51.97;63898.38;4957093;29;20117;-80
2021/06/08 07:53:45;;;;;;;9.10;7.72;;;;;;;-150.07;51.95;63770.66;4959591;28;20019;-80
2021/06/08 07:56:12;;;;;;;13.60;8.35;;;;;;;-150.07;51.43;64038.69;4960567;28;20027;-79
2021/06/08 07:58:40;;;;;;;10.85;7.70;;;;;;;-150.07;51.69;63957.03;4955244;29;20015;-77
2021/06/08 08:01:10;;;;;;;9.85;8.85;;;;;;;-150.07;52.20;64551.72;4958326;28;20039;-81
2021/06/08 08:03:39;;;;;;;9.90;8.65;;;;;;;-150.07;52.24;63781.13;4959190;28;20488;-82
2021/06/08 08:06:09;;;;;;;10.38;7.05;;;;;;;-150.07;51.44;64639.66;4957579;29;20023;-80
2021/06/08 08:08:36;;;;;;;12.50;8.32;;;;;;;-150.07;51.29;64174.78;4958040;29;20497;-77
2021/06/08 08:11:15;;;;;;;9.82;7.88;;;;;;;-150.07;50.67;64222.94;4958823;29;20043;-80
2021/06/08 08:13:46;;;;;;;11.13;8.55;;;;;;;-150.07;50.19;64794.66;4956900;29;20035;-81
2021/06/08 08:16:14;;;;;;;9.98;9.00;;;;;;;-150.07;49.99;64292.03;4957498;29;20115;-80
2021/06/08 08:18:43;;;;;;;12.15;10.07;;;;;;;-150.07;50.11;64262.72;4957969;29;20121;-82
2021/06/08 08:21:13;;;;;;;12.02;9.38;;;;;;;-150.07;50.11;65146.50;4958289;28;20098;-81
2021/06/08 08:23:40;;;;;;;14.55;9.77;;;;;;;-150.07;49.86;64306.69;4954243;29;20122;-80
2021/06/08 08:26:09;;;;;;;13.55;11.32;;;;;;;-150.07;49.69;65052.25;4956876;28;20565;-80
2021/06/08 08:28:39;;;;;;;11.88;9.70;;;;;;;-150.07;50.55;64208.28;4959546;28;20037;-79
2021/06/08 08:31:07;;;;;;;;;;;;;;;-150.07;50.82;64304.59;4956627;28;20118;-82
2021/06/08 08:33:34;;;;;;;11.05;8.88;;;;;;;-150.07;51.62;63980.06;4956528;28;20211;-82
2021/06/08 08:36:04;;;;;;;9.98;8.95;;;;;;;-150.07;51.75;64101.50;4958960;28;20035;-82
2021/06/08 08:38:32;;;;;;;9.90;7.78;;;;;;;-150.07;51.32;64241.78;4962439;28;20023;-81
2021/06/08 08:41:03;;;;;;;12.10;7.07;;;;;;;-150.07;51.18;64532.88;4968080;28;20087;-80
2021/06/08 08:43:31;;;;;;;16.30;8.02;;;;;;;-150.07;51.91;64137.09;4970359;28;20106;-80
2021/06/08 08:45:58;;;;;;;10.30;7.13;;;;;;;-150.07;52.16;63806.25;4961342;28;20174;-80
2021/06/08 08:48:26;;;;;;;12.25;7.38;;;;;;;-150.07;51.71;64162.22;4957995;28;20028;-80
2021/06/08 08:50:54;;;;;;;8.80;7.50;;;;;;;-150.07;51.46;64088.94;4959095;28;20480;-82
2021/06/08 08:53:23;;;;;;;10.98;7.65;;;;;;;-150.07;51.19;63994.72;4955481;29;20027;-80
2021/06/08 08:55:50;;;;;;;9.43;7.63;;;;;;;-150.07;51.04;63827.19;4958130;28;20078;-80
2021/06/08 08:58:18;;;;;;;11.02;6.90;;;;;;;-150.07;51.08;64042.88;4955557;29;20576;-81
2021/06/08 09:00:46;;;;;;;10.45;7.22;;;;;;;-150.07;51.42;64107.78;4957562;28;20035;-81
2021/06/08 09:03:15;;;;;;;11.20;7.03;;;;;;;-150.07;51.94;63923.50;4957404;29;20106;-79
2021/06/08 09:05:43;;;;;;;7.57;6.57;;;;;;;-150.07;51.88;63963.31;4957518;28;20037;-80
2021/06/08 09:08:11;;;;;;;6.70;6.00;;;;;;;-150.07;52.17;63977.97;4953963;29;20045;-80
2021/06/08 09:10:42;;;;;;;9.65;6.32;;;;;;;-150.07;52.52;63890.00;4954135;29;20042;-82
2021/06/08 09:13:09;;;;;;;6.25;5.43;;;;;;;-150.07;54.19;63776.94;4955574;28;20392;-85
2021/06/08 09:15:36;;;;;;;11.95;4.60;;;;;;;-150.07;54.85;63555.03;4956222;29;20425;-83
2021/06/08 09:18:05;;;;;;;6.03;5.25;;;;;;;-150.07;54.97;63341.47;4955375;29;20039;-80
2021/06/08 09:20:33;;;;;;;5.60;5.00;;;;;;;-150.07;55.13;63515.25;4954724;29;20487;-80
2021/06/08 09:23:06;;;;;;;7.90;5.00;;;;;;;-150.07;55.47;63473.38;4955718;28;20027;-82
2021/06/08 09:25:39;;;;;;;4.32;3.60;;;;;;;-150.07;54.96;63508.97;4966208;28;20034;-85
2021/06/08 09:28:19;;;;;;;3.40;2.72;;;;;;;-150.07;55.32;63429.41;4960786;29;20519;-85
2021/06/08 09:31:18;;;;;;;5.95;3.25;;;;;;;-150.07;55.73;62914.41;4961791;29;20027;-86
2021/06/08 09:33:57;;;;;;;4.78;2.75;;;;;;;-150.07;56.43;63410.56;4960455;28;20027;-87
2021/06/08 09:36:28;;;;;;;3.35;3.05;;;;;;;-150.07;56.05;63123.75;4953242;29;20051;-87
2021/06/08 09:38:58;;;;;;;2.95;2.38;;;;;;;-150.07;54.98;63301.69;4963419;28;20023;-86
2021/06/08 09:41:43;;;;;;;2.92;2.70;;;;;;;-150.07;56.08;63245.19;4956451;28;20020;-84
2021/06/08 09:44:18;;;;;;;4.63;2.63;;;;;;;-150.07;56.49;63982.16;4955164;29;20039;-86
2021/06/08 09:46:49;;;;;;;4.78;2.38;;;;;;;-150.07;56.52;62675.78;4955989;29;20067;-87
2021/06/08 09:49:38;;;;;;;4.97;3.60;;;;;;;-150.07;56.32;62943.72;4955465;28;20039;-86
2021/06/08 09:52:11;;;;;;;4.78;2.70;;;;;;;-150.07;56.66;63136.31;4956512;29;20122;-88
2021/06/08 09:54:44;;;;;;;5.43;3.00;;;;;;;-150.07;56.70;62989.78;4953743;29;20104;-86
2021/06/08 09:57:18;;;;;;;3.25;2.92;;;;;;;-150.07;57.54;62872.56;4953863;29;20051;-87
2021/06/08 09:59:58;;;;;;;2.63;2.42;;;;;;;-150.07;57.62;63611.56;4957215;28;20035;-81
2021/06/08 10:02:35;;;;;;;4.10;2.50;;;;;;;-150.07;57.15;63157.25;4952682;29;20404;-83
2021/06/08 10:05:17;;;;;;;4.60;2.65;;;;;;;-150.07;57.03;64001.00;4955511;28;20054;-85
2021/06/08 10:07:45;;;;;;;2.30;2.10;;;;;;;-150.07;56.99;63023.28;4957676;28;20143;-86
2021/06/08 10:10:16;;;;;;;4.47;2.80;;;;;;;-150.07;56.52;63236.81;4958540;29;20047;-87
2021/06/08 10:13:02;;;;;;;3.72;2.50;;;;;;;-150.07;56.48;63236.81;4948945;29;20030;-92
2021/06/08 10:15:34;;;;;;;4.60;3.30;;;;;;;-150.07;56.45;63287.03;4952150;28;20730;-82
2021/06/08 10:18:09;;;;;;;3.35;2.95;;;;;;;-150.07;56.26;63316.34;4949373;28;20051;-79
2021/06/08 10:20:39;;;;;;;4.38;2.55;;;;;;;-150.07;55.52;63169.81;4953616;28;20114;-78
2021/06/08 10:23:30;;;;;;;6.15;2.60;;;;;;;-150.07;55.15;63454.53;4954779;28;20569;-78
2021/06/08 10:25:59;;;;;;;4.45;2.75;;;;;;;-150.07;55.60;63171.91;4954482;29;20039;-78
2021/06/08 10:28:27;;;;;;;3.23;2.53;;;;;;;-150.07;56.75;63931.88;4951572;29;20086;-78
2021/06/08 10:30:55;;;;;;;4.40;2.42;;;;;;;-150.07;57.62;62880.94;4952054;28;20031;-78
2021/06/08 10:33:25;;;;;;;3.78;2.95;;;;;;;-150.07;58.52;63058.88;4951001;28;20023;-80
2021/06/08 10:35:54;;;;;;;2.28;2.10;;;;;;;-150.07;57.49;63136.31;4948549;29;20094;-79
2021/06/08 10:38:22;;;;;;;3.67;2.47;;;;;;;-150.07;56.66;62843.25;4953201;28;20035;-78
2021/06/08 10:40:53;;;;;;;3.80;2.10;;;;;;;-150.07;56.45;63117.47;4953049;28;20022;-80
2021/06/08 10:43:25;;;;;;;4.45;2.47;;;;;;;-150.07;56.57;63186.56;4952922;28;20027;-79
2021/06/08 10:45:55;;;;;;;4.70;2.33;;;;;;;-150.07;56.73;63100.72;4950128;28;20066;-79
2021/06/08 10:48:37;;;;;;;3.08;2.75;;;;;;;-150.07;57.17;63048.41;4952015;28;20035;-78
2021/06/08 10:51:12;;;;;;;4.32;2.83;;;;;;;-150.07;57.49;62924.88;4955636;28;20503;-79
2021/06/08 10:53:54;;;;;;;2.97;2.35;;;;;;;-150.07;56.81;62998.16;4957265;28;20038;-82
2021/06/08 10:56:20;;;;;;;2.30;2.10;;;;;;;-150.07;56.56;63197.03;4957453;29;20069;-79
2021/06/08 10:58:53;;;;;;;2.90;2.67;;;;;;;-150.07;56.32;63238.91;4961670;28;20038;-80
2021/06/08 11:01:40;;;;;;;3.08;2.75;;;;;;;-150.07;56.45;63165.63;4960944;28;20032;-80
2021/06/08 11:04:20;;;;;;;3.15;2.80;;;;;;;-150.07;56.71;63136.31;4959087;28;20440;-80
2021/06/08 11:07:04;;;;;;;3.28;2.97;;;;;;;-150.07;57.49;63485.94;4954976;28;20046;-80
2021/06/08 11:09:33;;;;;;;4.88;3.42;;;;;;;-150.07;57.67;63012.81;4959632;28;20039;-80
2021/06/08 11:12:09;;;;;;;3.78;3.40;;;;;;;-150.07;58.04;63060.97;4958602;28;20504;-81
2021/06/08 11:15:17;;;;;;;2.97;2.72;;;;;;;-150.07;57.73;63123.75;4962791;28;20499;-80
2021/06/08 11:17:32;;;;;;;3.05;2.80;;;;;;;-150.07;56.90;63144.69;4959362;28;20039;-79
2021/06/08 11:20:20;;;;;;;4.13;2.40;;;;;;;-150.07;57.04;63104.91;4965753;28;20107;-79
2021/06/08 11:23:00;;;;;;;2.72;2.47;;;;;;;-150.07;57.69;63073.50;4960193;29;20035;-78